createdAt,value
2019-02-09T00:00:07.274Z,94947.95
2019-02-09T00:02:45.660Z,94900.84
2019-02-09T00:05:21.246Z,94930.19
2019-02-09T00:07:52.291Z,94890.75
2019-02-09T00:10:31.477Z,94881.48
2019-02-09T00:13:06.779Z,94914.25
2019-02-09T00:15:38.838Z,94926.95
2019-02-09T00:18:12.202Z,94907.39
2019-02-09T00:20:45.162Z,94872.70
2019-02-09T00:23:19.673Z,94877.74
2019-02-09T00:25:54.226Z,94902.23
2019-02-09T00:28:26.542Z,94902.23
2019-02-09T00:30:57.472Z,94922.53
2019-02-09T00:33:30.339Z,94930.19
2019-02-09T00:36:01.255Z,94930.19
2019-02-09T00:38:31.977Z,94951.57
2019-02-09T00:41:20.431Z,94942.09
2019-02-09T00:43:54.333Z,94955.92
2019-02-09T00:46:32.587Z,94973.59
2019-02-09T00:49:03.691Z,94960.85
2019-02-09T00:51:34.515Z,94956.61
2019-02-09T00:54:07.696Z,94964.78
2019-02-09T00:56:41.537Z,94983.69
2019-02-09T00:59:18.308Z,94996.70
2019-02-09T01:01:53.462Z,94991.77
2019-02-09T01:04:26.693Z,95007.11
2019-02-09T01:06:57.548Z,95008.73
2019-02-09T01:09:28.012Z,95021.33
2019-02-09T01:11:58.557Z,95021.33
2019-02-09T01:14:28.886Z,95032.55
2019-02-09T01:17:00.280Z,95047.19
2019-02-09T01:19:30.976Z,95023.56
2019-02-09T01:22:01.320Z,95033.85
2019-02-09T01:24:31.839Z,95052.42
2019-02-09T01:27:03.453Z,95012.97
2019-02-09T01:29:38.748Z,95039.71
2019-02-09T01:32:09.779Z,95062.22
2019-02-09T01:34:40.335Z,95062.22
2019-02-09T01:37:11.487Z,95068.88
2019-02-09T01:39:47.307Z,95062.22
2019-02-09T01:42:14.716Z,95078.52
2019-02-09T01:44:45.150Z,95061.91
2019-02-09T01:47:17.160Z,95069.73
2019-02-09T01:49:48.034Z,95076.89
2019-02-09T01:52:18.836Z,95083.25
2019-02-09T01:54:50.865Z,95061.22
2019-02-09T01:57:23.199Z,95086.48
2019-02-09T01:59:54.168Z,95108.70
2019-02-09T02:02:43.770Z,95116.98
2019-02-09T02:05:15.706Z,95067.27
2019-02-09T02:07:48.236Z,95074.77
2019-02-09T02:10:27.470Z,95124.86
2019-02-09T02:13:00.034Z,95116.88
2019-02-09T02:15:31.368Z,95112.12
2019-02-09T02:18:04.324Z,95127.78
2019-02-09T02:20:34.904Z,95125.66
2019-02-09T02:23:06.860Z,95118.80
2019-02-09T02:25:38.757Z,95119.80
2019-02-09T02:28:09.133Z,95094.86
2019-02-09T02:30:40.042Z,95093.24
2019-02-09T02:33:10.912Z,95122.23
2019-02-09T02:35:41.337Z,95122.23
2019-02-09T02:38:11.831Z,95141.01
2019-02-09T02:40:42.391Z,95133.64
2019-02-09T02:43:18.174Z,95133.03
2019-02-09T02:45:48.733Z,95100.41
2019-02-09T02:48:20.936Z,95112.12
2019-02-09T02:50:54.190Z,95135.96
2019-02-09T02:53:24.659Z,95112.83
2019-02-09T02:55:57.373Z,95115.87
2019-02-09T02:58:30.832Z,95142.62
2019-02-09T03:01:00.985Z,95129.59
2019-02-09T03:03:32.585Z,95129.59
2019-02-09T03:06:03.327Z,95111.02
2019-02-09T03:08:35.554Z,95143.63
2019-02-09T03:11:09.554Z,95132.03
2019-02-09T03:13:40.280Z,95141.01
2019-02-09T03:16:16.959Z,95161.22
2019-02-09T03:18:47.476Z,95164.84
2019-02-09T03:21:18.967Z,95148.99
2019-02-09T03:23:53.879Z,95164.65
2019-02-09T03:26:23.594Z,95128.40
2019-02-09T03:28:57.659Z,95158.28
2019-02-09T03:31:35.979Z,95172.83
2019-02-09T03:34:06.805Z,95151.62
2019-02-09T03:36:38.756Z,95151.62
2019-02-09T03:39:10.265Z,95157.78
2019-02-09T03:41:40.792Z,95160.41
2019-02-09T03:44:12.722Z,95167.77
2019-02-09T03:46:46.010Z,95175.76
2019-02-09T03:49:16.746Z,95180.00
2019-02-09T03:51:50.734Z,95196.00
2019-02-09T03:54:20.802Z,95194.38
2019-02-09T03:56:52.121Z,95207.11
2019-02-09T03:59:25.869Z,95199.94
2019-02-09T04:01:58.291Z,95177.06
2019-02-09T04:04:30.783Z,95207.11
2019-02-09T04:07:03.739Z,95214.59
2019-02-09T04:09:34.943Z,95225.39
2019-02-09T04:12:08.292Z,95195.38
2019-02-09T04:14:39.227Z,95200.24
2019-02-09T04:17:09.801Z,95188.02
2019-02-09T04:19:45.030Z,95232.88
2019-02-09T04:22:15.544Z,95232.88
2019-02-09T04:24:56.869Z,95223.39
2019-02-09T04:27:28.520Z,95217.22
2019-02-09T04:29:59.376Z,95214.59
2019-02-09T04:32:30.235Z,95233.38
2019-02-09T04:35:02.246Z,95209.54
2019-02-09T04:37:34.960Z,95211.05
2019-02-09T04:40:07.941Z,95211.86
2019-02-09T04:42:39.771Z,95211.86
2019-02-09T04:45:13.024Z,95238.13
2019-02-09T04:47:43.995Z,95255.41
2019-02-09T04:50:15.584Z,95244.19
2019-02-09T04:52:49.491Z,95203.88
2019-02-09T04:55:21.929Z,95203.88
2019-02-09T04:57:52.929Z,95232.57
2019-02-09T05:00:30.340Z,95225.70
2019-02-09T05:03:05.496Z,95242.38
2019-02-09T05:05:36.571Z,95233.58
2019-02-09T05:08:11.708Z,95236.51
2019-02-09T05:10:46.177Z,95236.51
2019-02-09T05:13:18.402Z,95236.51
2019-02-09T05:15:49.405Z,95224.09
2019-02-09T05:18:20.110Z,95231.77
2019-02-09T05:20:50.652Z,95226.40
2019-02-09T05:23:21.612Z,95231.77
2019-02-09T05:25:56.215Z,95224.59
2019-02-09T05:28:26.929Z,95230.95
2019-02-09T05:30:57.697Z,95225.59
2019-02-09T05:33:30.804Z,95225.09
2019-02-09T05:36:01.547Z,95223.47
2019-02-09T05:38:32.265Z,95223.47
2019-02-09T05:41:02.994Z,95219.73
2019-02-09T05:43:33.611Z,95235.81
2019-02-09T05:46:05.018Z,95236.81
2019-02-09T05:48:35.867Z,95234.70
2019-02-09T05:51:07.368Z,95243.19
2019-02-09T05:53:39.967Z,95239.44
2019-02-09T05:56:10.373Z,95236.81
2019-02-09T05:58:44.886Z,95243.69
2019-02-09T06:01:16.634Z,95243.38
2019-02-09T06:03:47.270Z,95241.06
2019-02-09T06:06:20.848Z,95241.06
2019-02-09T06:08:51.426Z,95239.75
2019-02-09T06:11:24.624Z,95218.72
2019-02-09T06:13:55.621Z,95250.55
2019-02-09T06:16:26.869Z,95217.91
2019-02-09T06:18:58.757Z,95228.02
2019-02-09T06:21:33.242Z,95209.11
2019-02-09T06:24:09.275Z,95209.11
2019-02-09T06:26:44.025Z,95226.71
2019-02-09T06:29:14.961Z,95239.94
2019-02-09T06:31:45.810Z,95243.38
2019-02-09T06:34:16.806Z,95247.63
2019-02-09T06:37:00.427Z,95233.27
2019-02-09T06:39:31.179Z,95231.95
2019-02-09T06:42:03.514Z,95218.91
2019-02-09T06:44:37.089Z,95228.71
2019-02-09T06:47:19.401Z,95233.58
2019-02-09T06:49:55.185Z,95246.81
2019-02-09T06:52:44.063Z,95230.64
2019-02-09T06:55:25.892Z,95236.39
2019-02-09T06:57:56.868Z,95240.33
2019-02-09T07:00:31.050Z,95246.00
2019-02-09T07:03:03.049Z,95226.40
2019-02-09T07:05:40.319Z,95219.22
2019-02-09T07:08:12.973Z,95233.89
2019-02-09T07:10:45.968Z,95233.89
2019-02-09T07:13:25.427Z,95255.80
2019-02-09T07:15:56.381Z,95255.80
2019-02-09T07:18:27.730Z,95230.64
2019-02-09T07:21:04.216Z,95217.60
2019-02-09T07:23:35.185Z,95233.58
2019-02-09T07:26:07.996Z,95231.95
2019-02-09T07:28:45.837Z,95231.95
2019-02-09T07:31:28.138Z,95240.13
2019-02-09T07:34:00.483Z,95238.02
2019-02-09T07:36:41.490Z,95231.95
2019-02-09T07:39:14.578Z,95257.23
2019-02-09T07:41:47.130Z,95257.23
2019-02-09T07:44:29.016Z,95250.55
2019-02-09T07:46:56.764Z,95247.63
2019-02-09T07:49:33.436Z,95274.40
2019-02-09T07:52:06.894Z,95240.45
2019-02-09T07:54:39.814Z,95266.22
2019-02-09T07:57:16.009Z,95259.66
2019-02-09T07:59:46.875Z,95255.11
2019-02-09T08:02:17.608Z,95249.55
2019-02-09T08:04:59.216Z,95243.38
2019-02-09T08:07:37.514Z,95264.91
2019-02-09T08:10:36.162Z,95258.54
2019-02-09T08:13:08.928Z,95257.73
2019-02-09T08:15:46.199Z,95252.48
2019-02-09T08:18:42.758Z,95263.91
2019-02-09T08:21:20.779Z,95271.27
2019-02-09T08:23:52.982Z,95260.16
2019-02-09T08:26:36.059Z,95252.37
2019-02-09T08:29:19.177Z,95282.08
2019-02-09T08:31:44.594Z,95275.72
2019-02-09T08:34:20.465Z,95281.27
2019-02-09T08:36:56.060Z,95271.47
2019-02-09T08:39:31.607Z,95284.52
2019-02-09T08:42:11.400Z,95285.52
2019-02-09T08:44:45.853Z,95258.73
2019-02-09T08:47:47.325Z,95281.27
2019-02-09T08:50:10.798Z,95277.02
2019-02-09T08:53:33.019Z,95304.12
2019-02-09T08:55:54.409Z,95303.30
2019-02-09T08:58:52.424Z,95291.69
2019-02-09T09:01:55.132Z,95294.31
2019-02-09T09:10:55.983Z,95291.88
2019-02-09T09:13:34.592Z,95321.63
2019-02-09T09:16:12.710Z,95306.74
2019-02-09T09:18:53.990Z,95282.08
2019-02-09T09:21:43.771Z,95306.74
2019-02-09T09:24:11.817Z,95327.00
2019-02-09T09:26:48.060Z,95333.68
2019-02-09T09:29:41.229Z,95322.75
2019-02-09T09:32:12.717Z,95321.13
2019-02-09T09:34:41.823Z,95323.25
2019-02-09T09:37:20.629Z,95336.50
2019-02-09T09:39:56.610Z,95338.12
2019-02-09T09:42:31.176Z,95311.30
2019-02-09T09:45:09.227Z,95325.38
2019-02-09T09:47:48.240Z,95326.38
2019-02-09T09:50:22.759Z,95326.38
2019-02-09T09:52:57.092Z,95358.55
2019-02-09T09:55:31.521Z,95366.03
2019-02-09T09:58:07.255Z,95368.66
2019-02-09T10:00:43.482Z,95364.41
2019-02-09T10:03:14.121Z,95357.54
2019-02-09T10:05:50.236Z,95392.64
2019-02-09T10:08:28.346Z,95404.08
2019-02-09T10:11:08.746Z,95388.08
2019-02-09T10:13:41.841Z,95388.08
2019-02-09T10:16:19.841Z,95386.45
2019-02-09T10:18:55.269Z,95374.22
2019-02-09T10:22:16.828Z,95366.53
2019-02-09T10:24:04.742Z,95366.53
2019-02-09T10:26:42.394Z,95364.91
2019-02-09T10:29:16.222Z,95366.73
2019-02-09T10:31:58.821Z,95375.72
2019-02-09T10:34:35.471Z,95381.41
2019-02-09T10:37:32.287Z,95376.03
2019-02-09T10:39:49.277Z,95396.27
2019-02-09T10:42:27.818Z,95396.27
2019-02-09T10:45:04.427Z,95415.39
2019-02-09T10:47:54.715Z,95395.45
2019-02-09T10:50:56.649Z,95375.72
2019-02-09T10:53:35.446Z,95388.58
2019-02-09T10:56:14.755Z,95382.22
2019-02-09T10:58:50.464Z,95404.95
2019-02-09T11:01:39.159Z,95404.95
2019-02-09T11:04:34.568Z,95401.02
2019-02-09T11:07:27.451Z,95407.39
2019-02-09T11:10:29.297Z,95428.78
2019-02-09T11:13:06.211Z,95449.41
2019-02-09T11:16:05.739Z,95446.32
2019-02-09T11:18:41.670Z,95446.32
2019-02-09T11:21:14.691Z,95472.47
2019-02-09T11:23:53.053Z,95457.91
2019-02-09T11:26:24.111Z,95460.03
2019-02-09T11:29:13.488Z,95461.66
2019-02-09T11:31:52.911Z,95430.56
2019-02-09T11:35:06.990Z,95415.89
2019-02-09T11:37:47.116Z,95428.95
2019-02-09T11:40:53.499Z,95391.52
2019-02-09T11:44:28.884Z,95367.34
2019-02-09T11:50:12.910Z,95386.45
2019-02-09T11:55:23.539Z,95409.83
2019-02-09T11:57:57.931Z,95409.83
2019-02-09T12:00:40.566Z,95373.91
2019-02-09T12:03:26.120Z,95354.30
2019-02-09T12:06:15.082Z,95353.48
2019-02-09T12:08:53.906Z,95315.23
2019-02-09T12:11:43.632Z,95305.13
2019-02-09T12:14:53.329Z,95285.52
2019-02-09T12:21:56.061Z,95309.06
2019-02-09T12:24:54.008Z,95283.58
2019-02-09T12:34:29.349Z,95300.26
2019-02-09T12:54:37.653Z,95295.20
2019-02-09T13:21:33.589Z,95288.83
2019-02-09T13:24:11.206Z,95264.87
2019-02-09T13:26:53.157Z,95232.84
2019-02-09T13:29:45.104Z,95211.28
2019-02-09T13:32:24.011Z,95210.47
2019-02-09T13:35:06.243Z,95210.67
2019-02-09T13:37:40.931Z,95203.80
2019-02-09T13:40:34.820Z,95206.23
2019-02-09T13:43:18.986Z,95214.91
2019-02-09T13:46:35.738Z,95213.41
2019-02-09T14:02:39.785Z,95228.79
2019-02-09T14:05:17.763Z,95217.69
2019-02-09T14:08:16.034Z,95185.71
2019-02-09T14:15:01.583Z,95216.88
2019-02-09T14:32:33.865Z,95180.16
2019-02-09T14:38:14.836Z,95169.05
2019-02-09T14:40:56.438Z,95147.53
2019-02-09T14:44:18.170Z,95144.60
2019-02-09T14:47:45.882Z,95121.77
2019-02-09T14:50:45.196Z,95111.67
2019-02-09T14:56:18.428Z,95059.69
2019-02-09T14:59:37.718Z,95075.41
2019-02-09T15:09:55.704Z,95076.10
2019-02-09T15:16:50.703Z,95081.45
2019-02-09T15:21:16.019Z,95070.86
2019-02-09T15:44:18.363Z,95041.69
2019-02-09T16:01:55.220Z,95014.02
2019-02-09T16:08:19.791Z,95024.92
2019-02-09T16:14:23.817Z,95004.23
2019-02-09T16:16:56.163Z,95020.69
2019-02-09T16:24:15.113Z,95007.16
2019-02-09T16:35:56.356Z,94989.88
2019-02-09T16:38:56.438Z,94992.30
2019-02-09T16:46:19.812Z,94986.14
2019-02-09T16:52:34.549Z,95015.02
2019-02-09T16:59:04.161Z,94987.45
2019-02-09T17:05:01.078Z,94983.20
2019-02-09T17:07:59.510Z,95008.97
2019-02-09T17:11:20.861Z,95017.45
2019-02-09T17:25:47.700Z,95010.90
2019-02-09T17:44:45.091Z,94991.99
